createdAt,value
2019-02-24T00:02:19.178Z,-6.90
2019-02-24T00:04:51.467Z,-6.90
2019-02-24T00:07:23.909Z,-7.00
2019-02-24T00:09:56.146Z,-7.00
2019-02-24T00:12:28.384Z,-7.00
2019-02-24T00:15:01.235Z,-7.00
2019-02-24T00:17:33.534Z,-7.00
2019-02-24T00:20:06.170Z,-7.00
2019-02-24T00:22:38.358Z,-6.90
2019-02-24T00:25:10.988Z,-7.00
2019-02-24T00:27:43.269Z,-6.90
2019-02-24T00:30:15.665Z,-7.00
2019-02-24T00:32:47.790Z,-7.00
2019-02-24T00:35:20.042Z,-6.90
2019-02-24T00:37:52.458Z,-6.90
2019-02-24T00:40:24.722Z,-6.90
2019-02-24T00:42:56.983Z,-6.90
2019-02-24T00:45:29.407Z,-6.90
2019-02-24T00:48:01.728Z,-6.90
2019-02-24T00:50:34.227Z,-7.00
2019-02-24T00:53:06.698Z,-7.00
2019-02-24T00:55:38.878Z,-7.00
2019-02-24T00:58:16.178Z,-7.00
2019-02-24T01:00:45.324Z,-7.00
2019-02-24T01:03:17.969Z,-7.00
2019-02-24T01:05:50.409Z,-7.00
2019-02-24T01:08:22.569Z,-7.00
2019-02-24T01:10:55.181Z,-7.00
2019-02-24T01:13:27.494Z,-7.00
2019-02-24T01:15:59.816Z,-7.00
2019-02-24T01:18:32.220Z,-7.00
2019-02-24T01:21:04.702Z,-7.10
2019-02-24T01:23:36.951Z,-7.10
2019-02-24T01:26:09.196Z,-7.10
2019-02-24T01:28:41.457Z,-7.20
2019-02-24T01:31:13.677Z,-7.10
2019-02-24T01:33:46.115Z,-7.10
2019-02-24T01:36:18.518Z,-7.10
2019-02-24T01:38:50.971Z,-7.00
2019-02-24T01:41:23.307Z,-7.00
2019-02-24T01:43:56.410Z,-7.00
2019-02-24T01:46:28.799Z,-7.00
2019-02-24T01:49:00.987Z,-7.00
2019-02-24T01:51:33.226Z,-7.00
2019-02-24T01:54:05.501Z,-7.00
2019-02-24T01:56:37.862Z,-7.00
2019-02-24T01:59:10.038Z,-7.00
2019-02-24T02:01:42.297Z,-7.00
2019-02-24T02:04:14.468Z,-7.00
2019-02-24T02:06:46.687Z,-7.10
2019-02-24T02:09:19.071Z,-7.10
2019-02-24T02:11:51.270Z,-7.10
2019-02-24T02:14:23.529Z,-7.10
2019-02-24T02:16:55.892Z,-7.10
2019-02-24T02:19:28.296Z,-7.10
2019-02-24T02:22:00.904Z,-7.10
2019-02-24T02:24:33.192Z,-7.10
2019-02-24T02:27:05.328Z,-7.10
2019-02-24T02:29:37.579Z,-7.10
2019-02-24T02:32:09.914Z,-7.20
2019-02-24T02:34:42.123Z,-7.10
2019-02-24T02:37:14.687Z,-7.20
2019-02-24T02:39:46.993Z,-7.20
2019-02-24T02:42:19.229Z,-7.30
2019-02-24T02:44:51.575Z,-7.30
2019-02-24T02:47:24.104Z,-7.30
2019-02-24T02:49:56.376Z,-7.30
2019-02-24T02:52:28.521Z,-7.30
2019-02-24T02:55:00.780Z,-7.40
2019-02-24T02:57:32.959Z,-7.40
2019-02-24T03:00:07.466Z,-7.50
2019-02-24T03:02:39.756Z,-7.60
2019-02-24T03:05:12.347Z,-7.60
2019-02-24T03:07:53.074Z,-7.70
2019-02-24T03:10:36.734Z,-7.70
2019-02-24T03:13:09.840Z,-7.70
2019-02-24T03:15:43.120Z,-7.70
2019-02-24T03:18:16.504Z,-7.70
2019-02-24T03:20:49.531Z,-7.70
2019-02-24T03:23:23.521Z,-7.70
2019-02-24T03:25:57.492Z,-7.80
2019-02-24T03:28:31.900Z,-7.80
2019-02-24T03:31:04.996Z,-7.80
2019-02-24T03:33:39.727Z,-7.80
2019-02-24T03:36:12.942Z,-7.90
2019-02-24T03:38:46.164Z,-7.90
2019-02-24T03:41:19.233Z,-7.90
2019-02-24T03:43:52.290Z,-7.90
2019-02-24T03:46:25.831Z,-7.90
2019-02-24T03:48:58.811Z,-8.00
2019-02-24T03:51:32.185Z,-8.00
2019-02-24T03:54:05.285Z,-8.00
2019-02-24T03:56:38.245Z,-8.00
2019-02-24T03:59:15.160Z,-8.00
2019-02-24T04:01:46.536Z,-8.10
2019-02-24T04:04:19.757Z,-8.10
2019-02-24T04:06:53.045Z,-8.20
2019-02-24T04:09:26.176Z,-8.10
2019-02-24T04:11:59.364Z,-8.20
2019-02-24T04:14:32.778Z,-8.30
2019-02-24T04:17:06.932Z,-8.20
2019-02-24T04:19:40.011Z,-8.30
2019-02-24T04:22:13.110Z,-8.30
2019-02-24T04:24:46.601Z,-8.40
2019-02-24T04:27:19.641Z,-8.40
2019-02-24T04:29:53.011Z,-8.50
2019-02-24T04:32:26.247Z,-8.50
2019-02-24T04:35:00.274Z,-8.50
2019-02-24T04:37:33.579Z,-8.60
2019-02-24T04:40:06.971Z,-8.60
2019-02-24T04:42:40.810Z,-8.70
2019-02-24T04:45:13.854Z,-8.70
2019-02-24T04:47:47.406Z,-8.70
2019-02-24T04:50:20.723Z,-8.70
2019-02-24T04:52:54.438Z,-8.80
2019-02-24T04:55:27.849Z,-8.80
2019-02-24T04:58:01.272Z,-8.80
2019-02-24T05:00:34.261Z,-8.80
2019-02-24T05:03:07.248Z,-8.80
2019-02-24T05:05:40.453Z,-8.80
2019-02-24T05:08:13.580Z,-8.90
2019-02-24T05:10:48.506Z,-8.90
2019-02-24T05:13:22.635Z,-8.90
2019-02-24T05:15:55.777Z,-8.90
2019-02-24T05:18:28.956Z,-8.90
2019-02-24T05:21:02.327Z,-8.90
2019-02-24T05:23:35.403Z,-8.80
2019-02-24T05:26:08.958Z,-8.80
2019-02-24T05:28:42.375Z,-8.80
2019-02-24T05:31:15.975Z,-8.70
2019-02-24T05:33:49.622Z,-8.70
2019-02-24T05:36:22.902Z,-8.60
2019-02-24T05:38:56.429Z,-8.50
2019-02-24T05:41:29.666Z,-8.10
2019-02-24T05:44:02.797Z,-7.70
2019-02-24T05:46:35.988Z,-7.30
2019-02-24T05:49:09.951Z,-6.90
2019-02-24T05:51:43.448Z,-6.50
2019-02-24T05:54:16.877Z,-6.20
2019-02-24T05:56:50.404Z,-6.00
2019-02-24T05:59:23.757Z,-5.60
2019-02-24T06:01:56.982Z,-5.30
2019-02-24T06:04:30.791Z,-5.00
2019-02-24T06:07:04.700Z,-4.70
2019-02-24T06:09:38.120Z,-4.50
2019-02-24T06:12:12.060Z,-4.40
2019-02-24T06:14:45.543Z,-4.30
2019-02-24T06:17:19.513Z,-4.20
2019-02-24T06:19:52.784Z,-4.00
2019-02-24T06:22:26.008Z,-4.00
2019-02-24T06:24:59.925Z,-3.80
2019-02-24T06:27:33.254Z,-3.80
2019-02-24T06:30:07.085Z,-3.50
2019-02-24T06:32:40.465Z,-3.30
2019-02-24T06:35:14.700Z,-3.00
2019-02-24T06:37:48.497Z,-3.00
2019-02-24T06:40:22.381Z,-2.80
2019-02-24T06:42:56.003Z,-2.60
2019-02-24T06:45:29.595Z,-2.50
2019-02-24T06:48:02.980Z,-2.60
2019-02-24T06:50:55.495Z,-2.70
2019-02-24T06:53:29.253Z,-2.60
2019-02-24T06:56:02.890Z,-2.60
2019-02-24T06:58:36.212Z,-2.70
2019-02-24T07:01:09.590Z,-2.60
2019-02-24T07:03:45.071Z,-2.70
2019-02-24T07:06:18.768Z,-2.60
2019-02-24T07:08:52.176Z,-2.50
2019-02-24T07:11:25.578Z,-2.40
2019-02-24T07:13:59.184Z,-2.20
2019-02-24T07:16:32.033Z,-1.90
2019-02-24T07:19:05.601Z,-1.90
2019-02-24T07:21:39.298Z,-2.00
2019-02-24T07:24:15.833Z,-2.00
2019-02-24T07:26:49.644Z,-2.00
2019-02-24T07:29:23.052Z,-1.90
2019-02-24T07:31:56.781Z,-1.90
2019-02-24T07:34:29.840Z,-1.80
2019-02-24T07:37:12.563Z,-1.80
2019-02-24T07:39:39.081Z,-1.80
2019-02-24T07:42:12.895Z,-1.70
2019-02-24T07:44:47.476Z,-1.50
2019-02-24T07:47:23.327Z,-1.30
2019-02-24T07:49:59.919Z,-1.60
2019-02-24T07:52:33.633Z,-1.90
2019-02-24T07:55:07.371Z,-1.90
2019-02-24T07:57:40.938Z,-1.80
2019-02-24T08:00:14.649Z,-1.60
2019-02-24T08:02:48.299Z,-1.70
2019-02-24T08:05:21.691Z,-1.50
2019-02-24T08:07:55.938Z,-1.50
2019-02-24T08:10:29.882Z,-1.70
2019-02-24T08:13:03.535Z,-1.70
2019-02-24T08:15:36.782Z,-1.50
2019-02-24T08:18:10.870Z,-1.50
2019-02-24T08:20:44.229Z,-1.60
2019-02-24T08:23:17.949Z,-1.60
2019-02-24T08:25:51.437Z,-1.50
2019-02-24T08:28:25.032Z,-1.40
2019-02-24T08:30:58.876Z,-1.10
2019-02-24T08:33:32.616Z,-0.80
2019-02-24T08:36:06.385Z,-1.00
2019-02-24T08:38:40.489Z,-1.10
2019-02-24T08:41:14.077Z,-1.20
2019-02-24T08:43:47.163Z,-1.40
2019-02-24T08:46:20.288Z,-1.30
2019-02-24T08:48:53.973Z,-1.30
2019-02-24T08:51:27.589Z,-1.20
2019-02-24T08:54:00.970Z,-1.40
2019-02-24T08:56:34.398Z,-1.40
2019-02-24T08:59:09.385Z,-1.20
2019-02-24T09:01:42.449Z,-1.30
2019-02-24T09:04:15.890Z,-1.40
2019-02-24T09:06:52.127Z,-1.30
2019-02-24T09:09:25.756Z,-1.10
2019-02-24T09:11:58.955Z,-0.90
2019-02-24T09:14:32.827Z,-0.80
2019-02-24T09:17:06.623Z,-0.60
2019-02-24T09:19:39.881Z,-0.40
2019-02-24T09:22:13.548Z,-0.50
2019-02-24T09:24:47.582Z,-1.00
2019-02-24T09:27:21.386Z,-1.00
2019-02-24T09:29:54.863Z,-0.90
2019-02-24T09:32:32.894Z,-0.60
2019-02-24T09:35:07.728Z,-0.50
2019-02-24T09:37:44.918Z,-0.60
2019-02-24T09:40:18.559Z,-0.60
2019-02-24T09:42:52.167Z,-0.40
2019-02-24T09:45:25.856Z,-0.60
2019-02-24T09:47:59.506Z,-0.60
2019-02-24T09:50:33.717Z,-0.60
2019-02-24T09:53:07.034Z,-0.60
2019-02-24T09:55:40.807Z,-0.40
2019-02-24T09:58:15.645Z,-0.30
2019-02-24T10:00:49.111Z,-0.40
2019-02-24T10:03:28.651Z,-0.10
2019-02-24T10:06:02.069Z,-0.20
2019-02-24T10:08:36.163Z,-0.10
2019-02-24T10:11:09.730Z,-0.30
2019-02-24T10:13:43.666Z,-0.30
2019-02-24T10:19:27.092Z,-0.10
2019-02-24T10:22:02.370Z,0.00
2019-02-24T10:24:36.047Z,-0.20
2019-02-24T10:27:09.731Z,-0.40
2019-02-24T10:29:43.785Z,-0.40
2019-02-24T10:32:17.811Z,-0.40
2019-02-24T10:34:51.494Z,-0.50
2019-02-24T10:37:25.487Z,-0.30
2019-02-24T10:39:59.497Z,-0.10
2019-02-24T10:42:32.911Z,-0.20
2019-02-24T10:45:09.210Z,-0.10
2019-02-24T10:47:43.951Z,0.00
2019-02-24T10:50:17.939Z,0.20
2019-02-24T10:52:51.369Z,0.40
2019-02-24T10:55:28.800Z,0.40
2019-02-24T10:58:02.474Z,0.60
2019-02-24T11:00:36.597Z,0.50
2019-02-24T11:03:10.569Z,0.50
2019-02-24T11:05:44.285Z,0.80
2019-02-24T11:08:17.577Z,0.70
2019-02-24T11:10:54.505Z,0.70
2019-02-24T11:13:27.596Z,0.50
2019-02-24T11:16:00.708Z,0.40
2019-02-24T11:18:33.892Z,0.30
2019-02-24T11:21:07.581Z,0.20
2019-02-24T11:23:40.908Z,-0.10
2019-02-24T11:26:14.120Z,-0.30
2019-02-24T11:28:47.223Z,-0.40
2019-02-24T11:31:20.562Z,-0.50
2019-02-24T11:33:53.762Z,-0.40
2019-02-24T11:36:27.013Z,-0.40
2019-02-24T11:39:00.239Z,-0.40
2019-02-24T11:41:34.185Z,-0.30
2019-02-24T11:44:07.872Z,-0.10
2019-02-24T11:46:40.859Z,0.00
2019-02-24T11:49:14.340Z,0.00
2019-02-24T11:51:47.656Z,-0.30
2019-02-24T11:54:20.859Z,-0.20
2019-02-24T11:56:53.744Z,-0.30
2019-02-24T11:59:27.188Z,-0.50
2019-02-24T12:02:01.062Z,-0.60
2019-02-24T12:04:34.194Z,-0.70
2019-02-24T12:07:07.388Z,-0.60
2019-02-24T12:09:40.673Z,-0.60
2019-02-24T12:12:14.536Z,-0.50
2019-02-24T12:14:48.009Z,-0.60
2019-02-24T12:17:24.557Z,-0.50
2019-02-24T12:19:58.011Z,-0.40
2019-02-24T12:22:31.775Z,-0.60
2019-02-24T12:25:05.387Z,-0.50
2019-02-24T12:27:38.884Z,-0.50
2019-02-24T12:30:12.908Z,-0.50
2019-02-24T12:32:46.091Z,-0.60
2019-02-24T12:35:19.224Z,-0.70
2019-02-24T12:37:52.413Z,-0.60
2019-02-24T12:40:25.782Z,-0.60
2019-02-24T12:43:05.727Z,-0.70
2019-02-24T12:45:40.885Z,-0.80
2019-02-24T12:48:14.059Z,-0.80
2019-02-24T12:50:47.758Z,-0.70
2019-02-24T12:53:21.055Z,-0.70
2019-02-24T12:55:54.260Z,-0.80
2019-02-24T12:58:27.187Z,-0.80
2019-02-24T13:01:02.684Z,-0.90
2019-02-24T13:03:36.400Z,-0.90
2019-02-24T13:06:09.737Z,-0.90
2019-02-24T13:08:43.080Z,-0.80
2019-02-24T13:11:16.043Z,-0.80
2019-02-24T13:13:49.424Z,-0.80
2019-02-24T13:16:26.134Z,-0.90
2019-02-24T13:18:59.480Z,-0.90
2019-02-24T13:21:32.889Z,-0.90
2019-02-24T13:24:06.340Z,-1.10
2019-02-24T13:26:39.707Z,-1.20
2019-02-24T13:29:12.866Z,-1.20
2019-02-24T13:31:46.469Z,-1.10
2019-02-24T13:34:21.398Z,-1.00
2019-02-24T13:36:55.076Z,-0.90
2019-02-24T13:39:28.352Z,-1.00
2019-02-24T13:42:02.997Z,-1.00
2019-02-24T13:44:36.714Z,-1.10
2019-02-24T13:47:13.231Z,-1.10
2019-02-24T13:49:46.520Z,-1.20
2019-02-24T13:52:20.135Z,-1.40
2019-02-24T13:54:53.538Z,-1.50
2019-02-24T13:57:32.669Z,-1.60
2019-02-24T14:00:09.619Z,-1.80
2019-02-24T14:02:46.733Z,-1.70
2019-02-24T14:05:21.355Z,-1.70
2019-02-24T14:07:56.590Z,-1.60
2019-02-24T14:10:31.453Z,-1.50
2019-02-24T14:13:08.865Z,-1.40
2019-02-24T14:15:42.869Z,-1.40
2019-02-24T14:18:16.446Z,-1.40
2019-02-24T14:20:49.913Z,-1.40
2019-02-24T14:23:23.900Z,-1.40
2019-02-24T14:25:58.286Z,-1.40
2019-02-24T14:28:32.842Z,-1.40
2019-02-24T14:31:07.073Z,-1.50
2019-02-24T14:33:40.391Z,-1.70
2019-02-24T14:36:14.799Z,-1.80
2019-02-24T14:38:48.508Z,-1.80
2019-02-24T14:41:23.898Z,-1.70
2019-02-24T14:44:03.000Z,-1.80
2019-02-24T14:46:36.444Z,-1.90
2019-02-24T14:49:10.653Z,-1.90
2019-02-24T14:51:43.633Z,-2.00
2019-02-24T14:54:16.708Z,-2.10
2019-02-24T14:56:50.483Z,-2.10
2019-02-24T14:59:23.904Z,-2.10
2019-02-24T15:01:57.126Z,-2.20
2019-02-24T15:04:30.979Z,-2.30
2019-02-24T15:07:08.076Z,-2.20
2019-02-24T15:09:42.185Z,-2.20
2019-02-24T15:12:16.734Z,-2.20
2019-02-24T15:14:49.433Z,-2.20
2019-02-24T15:17:22.109Z,-2.10
2019-02-24T15:19:55.490Z,-2.10
2019-02-24T15:22:28.100Z,-2.10
2019-02-24T15:25:00.696Z,-2.10
2019-02-24T15:27:34.409Z,-2.20
2019-02-24T15:30:17.002Z,-2.20
2019-02-24T15:32:52.003Z,-2.20
2019-02-24T15:35:25.163Z,-2.20
2019-02-24T15:38:09.634Z,-2.30
2019-02-24T15:40:42.460Z,-2.30
2019-02-24T15:43:15.677Z,-2.30
2019-02-24T15:45:55.555Z,-2.20
2019-02-24T15:48:28.536Z,-2.20
2019-02-24T15:51:15.193Z,-2.30
2019-02-24T15:53:51.304Z,-2.30
2019-02-24T15:56:26.211Z,-2.30
2019-02-24T15:59:00.877Z,-2.30
2019-02-24T16:01:34.776Z,-2.30
2019-02-24T16:04:08.387Z,-2.30
2019-02-24T16:06:42.484Z,-2.30
2019-02-24T16:09:19.712Z,-2.40
2019-02-24T16:11:54.948Z,-2.30
2019-02-24T16:14:31.104Z,-2.40
2019-02-24T16:17:08.892Z,-2.40
2019-02-24T16:19:45.320Z,-2.50
2019-02-24T16:22:21.478Z,-2.50
2019-02-24T16:24:56.241Z,-2.60
2019-02-24T16:27:30.349Z,-2.70
2019-02-24T16:30:06.802Z,-2.70
2019-02-24T16:32:46.360Z,-2.80
2019-02-24T16:35:22.745Z,-2.80
2019-02-24T16:38:03.675Z,-3.00
2019-02-24T16:40:41.938Z,-3.10
2019-02-24T16:43:18.848Z,-3.20
2019-02-24T16:45:56.955Z,-3.30
2019-02-24T16:48:33.428Z,-3.40
2019-02-24T16:51:10.995Z,-3.40
2019-02-24T16:53:48.737Z,-3.50
2019-02-24T16:56:23.809Z,-3.50
2019-02-24T16:58:57.845Z,-3.60
2019-02-24T17:01:32.834Z,-3.60
2019-02-24T17:04:06.519Z,-3.60
2019-02-24T17:06:39.726Z,-3.60
2019-02-24T17:09:30.061Z,-3.60
2019-02-24T17:12:06.164Z,-3.70
2019-02-24T17:14:41.518Z,-3.70
2019-02-24T17:17:15.158Z,-3.70
2019-02-24T17:19:48.275Z,-3.80
2019-02-24T17:22:21.719Z,-3.80
2019-02-24T17:24:56.938Z,-3.80
2019-02-24T17:27:30.688Z,-3.90
2019-02-24T17:30:04.854Z,-3.90
2019-02-24T17:32:38.434Z,-3.90
2019-02-24T17:35:11.829Z,-3.90
2019-02-24T17:37:45.369Z,-3.90
2019-02-24T17:40:19.706Z,-3.90
2019-02-24T17:42:53.572Z,-3.90
2019-02-24T17:45:27.816Z,-3.90
2019-02-24T17:48:02.375Z,-3.90
2019-02-24T17:50:37.207Z,-3.90
2019-02-24T17:53:13.518Z,-3.80
2019-02-24T17:55:47.191Z,-3.80
2019-02-24T17:58:20.756Z,-3.80
2019-02-24T18:01:00.626Z,-3.90
2019-02-24T18:03:39.516Z,-3.90
2019-02-24T18:06:13.471Z,-3.90
2019-02-24T18:08:47.145Z,-3.90
2019-02-24T18:11:20.627Z,-3.90
2019-02-24T18:13:55.059Z,-3.90
2019-02-24T18:16:28.914Z,-3.90
2019-02-24T18:19:02.123Z,-3.90
2019-02-24T18:21:38.846Z,-3.90
2019-02-24T18:24:12.441Z,-4.00
2019-02-24T18:26:45.685Z,-4.00
2019-02-24T18:29:19.048Z,-4.00
2019-02-24T18:31:53.573Z,-4.00
2019-02-24T18:34:28.451Z,-4.00
2019-02-24T18:37:01.753Z,-3.90
2019-02-24T18:39:36.383Z,-3.90
2019-02-24T18:42:33.333Z,-3.90
2019-02-24T18:45:07.091Z,-3.90
2019-02-24T18:47:40.044Z,-3.80
2019-02-24T18:50:13.941Z,-3.80
2019-02-24T18:52:47.295Z,-3.70
2019-02-24T18:55:20.649Z,-3.70
2019-02-24T18:57:56.600Z,-3.60
2019-02-24T19:00:30.323Z,-3.60
2019-02-24T19:03:03.607Z,-3.60
2019-02-24T19:05:38.850Z,-3.70
2019-02-24T19:08:15.287Z,-3.70
2019-02-24T19:10:48.523Z,-3.70
2019-02-24T19:13:21.723Z,-3.70
2019-02-24T19:15:54.671Z,-3.80
2019-02-24T19:18:27.987Z,-3.80
2019-02-24T19:21:01.029Z,-3.80
2019-02-24T19:23:34.212Z,-3.70
2019-02-24T19:26:09.923Z,-3.70
2019-02-24T19:28:43.106Z,-3.70
2019-02-24T19:31:16.481Z,-3.70
2019-02-24T19:33:49.948Z,-3.80
2019-02-24T19:36:26.692Z,-3.80
2019-02-24T19:38:59.908Z,-3.80
2019-02-24T19:41:32.988Z,-3.90
2019-02-24T19:44:06.239Z,-3.90
2019-02-24T19:46:39.499Z,-3.90
2019-02-24T19:49:13.570Z,-3.90
2019-02-24T19:51:47.149Z,-3.90
2019-02-24T19:54:21.199Z,-3.90
2019-02-24T19:56:54.539Z,-3.90
2019-02-24T19:59:28.398Z,-3.90
2019-02-24T20:02:02.847Z,-3.90
2019-02-24T20:04:36.255Z,-3.90
2019-02-24T20:07:09.276Z,-3.90
2019-02-24T20:09:42.615Z,-3.90
2019-02-24T20:12:21.502Z,-4.00
2019-02-24T20:14:54.724Z,-4.00
2019-02-24T20:17:28.359Z,-4.00
2019-02-24T20:20:01.621Z,-4.00
2019-02-24T20:22:34.824Z,-4.10
2019-02-24T20:25:10.012Z,-4.20
2019-02-24T20:27:43.036Z,-4.30
2019-02-24T20:30:26.681Z,-4.30
2019-02-24T20:32:59.975Z,-4.40
2019-02-24T20:35:33.278Z,-4.40
2019-02-24T20:38:07.879Z,-4.40
2019-02-24T20:40:41.351Z,-4.40
2019-02-24T20:43:16.080Z,-4.40
2019-02-24T20:45:55.600Z,-4.40
2019-02-24T20:48:42.350Z,-4.50
2019-02-24T20:51:33.917Z,-4.50
2019-02-24T20:54:21.979Z,-4.50
2019-02-24T20:57:05.738Z,-4.50
2019-02-24T20:59:52.444Z,-4.50
2019-02-24T21:02:40.421Z,-4.50
2019-02-24T21:05:21.952Z,-4.60
2019-02-24T21:08:09.000Z,-4.60
2019-02-24T21:11:08.051Z,-4.70
2019-02-24T21:14:01.870Z,-4.80
2019-02-24T21:16:45.535Z,-4.80
2019-02-24T21:19:27.567Z,-4.80
2019-02-24T21:22:17.900Z,-4.90
2019-02-24T21:24:58.561Z,-4.90
2019-02-24T21:27:45.274Z,-5.00
2019-02-24T21:30:32.593Z,-5.10
2019-02-24T21:33:12.207Z,-5.10
2019-02-24T21:36:04.729Z,-5.10
2019-02-24T21:38:45.344Z,-5.20
2019-02-24T21:41:31.418Z,-5.30
2019-02-24T21:44:17.170Z,-5.30
2019-02-24T21:47:17.456Z,-5.40
2019-02-24T21:50:14.135Z,-5.40
2019-02-24T21:53:00.519Z,-5.50
2019-02-24T21:55:44.550Z,-5.50
2019-02-24T21:58:45.246Z,-5.50
2019-02-24T22:01:34.437Z,-5.50
2019-02-24T22:04:45.136Z,-5.50
2019-02-24T22:07:27.288Z,-5.50
2019-02-24T22:10:11.377Z,-5.50
2019-02-24T22:12:59.595Z,-5.50
2019-02-24T22:15:43.203Z,-5.50
2019-02-24T22:18:33.930Z,-5.50
2019-02-24T22:21:23.882Z,-5.60
2019-02-24T22:24:04.064Z,-5.60
2019-02-24T22:26:39.278Z,-5.70
2019-02-24T22:29:17.467Z,-5.70
2019-02-24T22:31:56.661Z,-5.70
2019-02-24T22:34:31.343Z,-5.70
2019-02-24T22:37:09.246Z,-5.70
2019-02-24T22:39:44.252Z,-5.70
2019-02-24T22:42:27.707Z,-5.80
2019-02-24T22:45:06.028Z,-5.90
2019-02-24T22:47:44.231Z,-5.90
2019-02-24T22:50:19.341Z,-5.90
2019-02-24T22:52:54.142Z,-6.00
2019-02-24T22:55:29.070Z,-6.10
2019-02-24T22:58:03.851Z,-6.10
2019-02-24T23:00:58.034Z,-6.10
2019-02-24T23:03:42.120Z,-6.00
2019-02-24T23:06:20.069Z,-6.00
2019-02-24T23:08:58.179Z,-6.00
2019-02-24T23:11:33.704Z,-6.10
2019-02-24T23:14:08.525Z,-6.10
2019-02-24T23:16:43.044Z,-6.20
2019-02-24T23:19:21.546Z,-6.20
2019-02-24T23:21:56.686Z,-6.30
2019-02-24T23:24:33.001Z,-6.20
2019-02-24T23:27:11.394Z,-6.30
2019-02-24T23:29:46.438Z,-6.30
2019-02-24T23:32:27.884Z,-6.40
2019-02-24T23:35:02.589Z,-6.50
2019-02-24T23:37:37.400Z,-6.50
2019-02-24T23:40:13.482Z,-6.60
2019-02-24T23:42:49.231Z,-6.60
2019-02-24T23:45:24.292Z,-6.60
2019-02-24T23:48:02.941Z,-6.60
2019-02-24T23:50:41.115Z,-6.70
2019-02-24T23:53:18.135Z,-6.60
2019-02-24T23:55:52.654Z,-6.70
2019-02-24T23:58:27.851Z,-6.80
